createdAt,value
2018-07-23T00:01:19.101Z,13.83
2018-07-23T00:03:46.630Z,13.60
2018-07-23T00:06:14.275Z,15.33
2018-07-23T00:08:41.871Z,15.50
2018-07-23T00:11:09.665Z,14.47
2018-07-23T00:13:37.246Z,14.80
2018-07-23T00:16:04.949Z,16.93
2018-07-23T00:18:32.516Z,17.70
2018-07-23T00:21:00.089Z,16.13
2018-07-23T00:23:27.670Z,16.53
2018-07-23T00:25:55.285Z,16.17
2018-07-23T00:28:22.894Z,16.37
2018-07-23T00:30:50.552Z,18.20
2018-07-23T00:33:18.144Z,18.13
2018-07-23T00:35:45.770Z,16.33
2018-07-23T00:38:13.358Z,17.47
2018-07-23T00:40:40.949Z,16.40
2018-07-23T00:43:08.586Z,18.00
2018-07-23T00:45:36.147Z,16.03
2018-07-23T00:48:03.735Z,16.60
2018-07-23T00:50:31.333Z,17.63
2018-07-23T00:52:58.912Z,21.30
2018-07-23T00:55:26.552Z,16.30
2018-07-23T00:57:54.161Z,16.57
2018-07-23T01:00:21.724Z,17.53
2018-07-23T01:02:49.313Z,18.00
2018-07-23T01:05:16.878Z,15.73
2018-07-23T01:07:44.422Z,18.23
2018-07-23T01:10:11.988Z,17.87
2018-07-23T01:12:39.562Z,17.73
2018-07-23T01:15:07.206Z,18.97
2018-07-23T01:17:34.802Z,16.80
2018-07-23T01:20:02.369Z,17.10
2018-07-23T01:22:29.949Z,17.67
2018-07-23T01:24:58.282Z,21.10
2018-07-23T01:27:25.893Z,17.80
2018-07-23T01:29:53.450Z,18.23
2018-07-23T01:32:21.286Z,17.43
2018-07-23T01:34:49.018Z,18.20
2018-07-23T01:37:17.265Z,17.30
2018-07-23T01:39:44.838Z,18.47
2018-07-23T01:42:12.541Z,17.90
2018-07-23T01:44:40.061Z,17.97
2018-07-23T01:47:08.806Z,18.73
2018-07-23T01:49:36.644Z,20.40
2018-07-23T01:52:04.548Z,18.17
2018-07-23T01:54:32.161Z,17.60
2018-07-23T01:56:59.863Z,17.70
2018-07-23T01:59:27.473Z,16.50
2018-07-23T02:01:55.072Z,17.93
2018-07-23T02:04:22.609Z,18.97
2018-07-23T02:06:50.162Z,19.97
2018-07-23T02:09:17.738Z,19.50
2018-07-23T02:11:45.331Z,18.27
2018-07-23T02:14:12.904Z,19.20
2018-07-23T02:16:40.485Z,19.50
2018-07-23T02:19:08.051Z,19.00
2018-07-23T02:21:36.519Z,19.43
2018-07-23T02:24:04.758Z,19.73
2018-07-23T02:26:32.316Z,18.60
2018-07-23T02:28:59.910Z,17.40
2018-07-23T02:31:27.573Z,17.80
2018-07-23T02:33:55.116Z,18.10
2018-07-23T02:36:22.692Z,18.43
2018-07-23T02:38:50.262Z,17.00
2018-07-23T02:41:17.971Z,17.70
2018-07-23T02:43:45.554Z,16.80
2018-07-23T02:46:13.141Z,17.53
2018-07-23T02:48:40.766Z,16.37
2018-07-23T02:51:08.425Z,16.20
2018-07-23T02:53:35.973Z,17.60
2018-07-23T02:56:03.644Z,17.70
2018-07-23T02:58:31.280Z,17.50
2018-07-23T03:00:58.857Z,19.37
2018-07-23T03:03:26.470Z,18.23
2018-07-23T03:05:54.069Z,18.33
2018-07-23T03:08:21.731Z,19.03
2018-07-23T03:10:49.335Z,19.80
2018-07-23T03:13:16.906Z,19.97
2018-07-23T03:15:44.510Z,19.93
2018-07-23T03:18:12.105Z,21.40
2018-07-23T03:20:39.710Z,21.70
2018-07-23T03:23:07.270Z,20.70
2018-07-23T03:25:34.841Z,21.07
2018-07-23T03:28:02.401Z,18.57
2018-07-23T03:30:29.985Z,19.23
2018-07-23T03:32:57.682Z,21.33
2018-07-23T03:35:25.309Z,21.60
2018-07-23T03:37:52.954Z,21.30
2018-07-23T03:40:20.556Z,21.80
2018-07-23T03:42:48.120Z,19.20
2018-07-23T03:45:15.722Z,21.50
2018-07-23T03:47:43.344Z,20.00
2018-07-23T03:50:10.952Z,20.50
2018-07-23T03:52:38.618Z,17.60
2018-07-23T03:55:06.234Z,19.97
2018-07-23T03:57:33.805Z,18.33
2018-07-23T04:00:01.414Z,19.23
2018-07-23T04:02:29.019Z,19.97
2018-07-23T04:04:56.641Z,17.77
2018-07-23T04:07:24.192Z,17.10
2018-07-23T04:09:51.847Z,17.37
2018-07-23T04:12:19.423Z,17.17
2018-07-23T04:14:46.998Z,16.43
2018-07-23T04:17:14.585Z,16.97
2018-07-23T04:19:42.169Z,17.07
2018-07-23T04:22:09.761Z,16.47
2018-07-23T04:24:37.339Z,18.10
2018-07-23T04:27:04.889Z,17.40
2018-07-23T04:29:32.482Z,18.00
2018-07-23T04:32:00.086Z,18.20
2018-07-23T04:34:27.659Z,16.73
2018-07-23T04:36:55.264Z,17.53
2018-07-23T04:39:22.840Z,17.70
2018-07-23T04:41:50.458Z,16.33
2018-07-23T04:44:18.026Z,16.20
2018-07-23T04:46:45.624Z,15.50
2018-07-23T04:49:13.244Z,17.03
2018-07-23T04:51:40.835Z,16.17
2018-07-23T04:54:08.418Z,15.80
2018-07-23T04:56:36.027Z,16.70
2018-07-23T04:59:03.656Z,15.70
2018-07-23T05:01:31.278Z,15.23
2018-07-23T05:03:58.829Z,15.93
2018-07-23T05:06:26.442Z,16.87
2018-07-23T05:08:53.995Z,16.47
2018-07-23T05:11:21.585Z,16.47
2018-07-23T05:13:49.139Z,15.70
2018-07-23T05:16:16.980Z,16.47
2018-07-23T05:18:44.572Z,15.73
2018-07-23T05:21:12.201Z,15.50
2018-07-23T05:23:39.751Z,16.57
2018-07-23T05:26:07.497Z,16.57
2018-07-23T05:28:35.096Z,16.00
2018-07-23T05:31:02.683Z,16.10
2018-07-23T05:33:30.250Z,16.43
2018-07-23T05:35:57.800Z,17.30
2018-07-23T05:38:25.412Z,17.93
2018-07-23T05:40:52.988Z,16.83
2018-07-23T05:43:20.546Z,18.40
2018-07-23T05:45:48.124Z,17.80
2018-07-23T05:48:15.645Z,17.50
2018-07-23T05:50:43.234Z,15.53
2018-07-23T05:53:10.825Z,16.33
2018-07-23T05:55:38.388Z,15.20
2018-07-23T05:58:06.013Z,14.40
2018-07-23T06:00:33.604Z,13.87
2018-07-23T06:03:01.149Z,13.73
2018-07-23T06:05:28.737Z,14.97
2018-07-23T06:07:56.364Z,14.13
2018-07-23T06:10:23.957Z,13.53
2018-07-23T06:12:51.514Z,13.00
2018-07-23T06:15:19.095Z,14.43
2018-07-23T06:17:46.676Z,15.57
2018-07-23T06:20:14.290Z,12.23
2018-07-23T06:22:42.166Z,13.87
2018-07-23T06:25:09.895Z,13.23
2018-07-23T06:27:37.494Z,12.30
2018-07-23T06:30:06.393Z,13.60
2018-07-23T06:32:33.961Z,13.30
2018-07-23T06:35:01.577Z,14.60
2018-07-23T06:37:29.155Z,13.63
2018-07-23T06:39:56.690Z,14.30
2018-07-23T06:42:24.328Z,14.37
2018-07-23T06:44:52.022Z,15.73
2018-07-23T06:47:19.557Z,14.70
2018-07-23T06:49:47.129Z,14.70
2018-07-23T06:52:14.677Z,14.23
2018-07-23T06:54:42.184Z,15.03
2018-07-23T06:57:09.737Z,14.13
2018-07-23T06:59:37.316Z,14.23
2018-07-23T07:02:05.080Z,14.73
2018-07-23T07:04:32.634Z,11.80
2018-07-23T07:07:00.197Z,12.87
2018-07-23T07:09:27.760Z,13.47
2018-07-23T07:11:55.317Z,13.80
2018-07-23T07:14:22.855Z,13.53
2018-07-23T07:16:50.440Z,13.40
2018-07-23T07:19:18.018Z,12.77
2018-07-23T07:21:45.795Z,12.83
2018-07-23T07:24:13.441Z,13.57
2018-07-23T07:26:41.096Z,16.10
2018-07-23T07:29:08.667Z,11.83
2018-07-23T07:31:36.471Z,11.03
2018-07-23T07:34:04.034Z,12.27
2018-07-23T07:36:31.601Z,12.73
2018-07-23T07:38:59.196Z,11.33
2018-07-23T07:41:26.810Z,11.40
2018-07-23T07:43:54.424Z,12.27
2018-07-23T07:46:22.052Z,10.83
2018-07-23T07:48:49.628Z,12.60
2018-07-23T07:51:17.229Z,13.50
2018-07-23T07:53:44.815Z,11.73
2018-07-23T07:56:12.502Z,12.33
2018-07-23T07:58:40.057Z,12.80
2018-07-23T08:01:07.640Z,13.50
2018-07-23T08:03:35.225Z,12.93
2018-07-23T08:06:02.789Z,12.30
2018-07-23T08:08:30.399Z,11.40
2018-07-23T08:10:57.980Z,13.27
2018-07-23T08:13:25.848Z,11.10
2018-07-23T08:15:53.445Z,10.70
2018-07-23T08:18:20.995Z,12.77
2018-07-23T08:20:48.577Z,10.57
2018-07-23T08:23:16.219Z,11.40
2018-07-23T08:25:43.822Z,11.50
2018-07-23T08:28:11.492Z,11.00
2018-07-23T08:30:39.049Z,11.20
2018-07-23T08:33:06.606Z,11.27
2018-07-23T08:35:34.249Z,12.40
2018-07-23T08:38:02.069Z,11.70
2018-07-23T08:40:29.664Z,10.37
2018-07-23T08:42:57.216Z,12.73
2018-07-23T08:45:24.810Z,11.23
2018-07-23T08:47:52.419Z,11.90
2018-07-23T08:50:19.996Z,10.23
2018-07-23T08:52:47.602Z,14.23
2018-07-23T08:55:15.226Z,11.10
2018-07-23T08:57:42.785Z,10.37
2018-07-23T09:00:10.338Z,9.60
2018-07-23T09:02:37.932Z,11.23
2018-07-23T09:05:05.977Z,9.13
2018-07-23T09:07:33.563Z,9.20
2018-07-23T09:10:01.102Z,8.43
2018-07-23T09:12:28.676Z,9.03
2018-07-23T09:14:56.272Z,11.70
2018-07-23T09:17:23.934Z,8.70
2018-07-23T09:19:51.543Z,9.73
2018-07-23T09:22:19.146Z,9.03
2018-07-23T09:24:46.765Z,8.70
2018-07-23T09:27:14.391Z,9.20
2018-07-23T09:29:41.967Z,9.40
2018-07-23T09:32:09.489Z,9.63
2018-07-23T09:34:37.109Z,9.50
2018-07-23T09:37:04.688Z,8.63
2018-07-23T09:39:32.216Z,8.80
2018-07-23T09:42:00.050Z,9.03
2018-07-23T09:44:27.584Z,8.43
2018-07-23T09:46:55.138Z,9.30
2018-07-23T09:49:22.710Z,8.50
2018-07-23T09:51:50.256Z,9.80
2018-07-23T09:54:17.783Z,9.27
2018-07-23T09:56:45.331Z,8.83
2018-07-23T09:59:13.236Z,8.53
2018-07-23T10:01:40.849Z,9.00
2018-07-23T10:04:08.410Z,9.73
2018-07-23T10:06:35.999Z,8.67
2018-07-23T10:09:04.154Z,8.83
2018-07-23T10:11:31.714Z,9.70
2018-07-23T10:13:59.259Z,8.80
2018-07-23T10:16:26.826Z,8.43
2018-07-23T10:18:54.334Z,8.20
2018-07-23T10:21:21.941Z,9.50
2018-07-23T10:23:49.506Z,8.60
2018-07-23T10:26:17.063Z,8.70
2018-07-23T10:28:44.596Z,9.90
2018-07-23T10:31:12.177Z,9.20
2018-07-23T10:33:39.739Z,9.17
2018-07-23T10:36:07.345Z,10.93
2018-07-23T10:38:34.907Z,9.03
2018-07-23T10:41:02.450Z,8.87
2018-07-23T10:43:30.047Z,10.73
2018-07-23T10:45:57.590Z,8.77
2018-07-23T10:48:25.131Z,9.17
2018-07-23T10:50:52.716Z,8.53
2018-07-23T10:53:20.277Z,8.97
2018-07-23T10:55:47.817Z,9.70
2018-07-23T10:58:15.374Z,8.70
2018-07-23T11:00:42.931Z,9.20
2018-07-23T11:03:10.518Z,9.20
2018-07-23T11:05:38.091Z,9.80
2018-07-23T11:08:05.814Z,9.40
2018-07-23T11:10:33.366Z,11.40
2018-07-23T11:13:00.925Z,8.97
2018-07-23T11:15:28.534Z,10.07
2018-07-23T11:17:56.115Z,9.10
2018-07-23T11:20:23.721Z,9.17
2018-07-23T11:22:51.315Z,14.50
2018-07-23T11:25:39.178Z,9.43
2018-07-23T11:27:46.505Z,9.77
2018-07-23T11:30:14.082Z,9.70
2018-07-23T11:32:41.698Z,10.50
2018-07-23T11:35:09.256Z,16.93
2018-07-23T11:37:36.833Z,10.33
2018-07-23T11:40:04.682Z,9.83
2018-07-23T11:42:32.259Z,10.43
2018-07-23T11:44:59.833Z,9.90
2018-07-23T11:47:27.398Z,9.37
2018-07-23T11:49:55.106Z,10.90
2018-07-23T11:52:22.699Z,10.00
2018-07-23T11:54:50.285Z,10.00
2018-07-23T11:57:17.886Z,12.33
2018-07-23T11:59:45.496Z,10.60
2018-07-23T12:02:13.134Z,9.00
2018-07-23T12:04:40.757Z,9.10
2018-07-23T12:07:08.648Z,9.20
2018-07-23T12:09:36.186Z,9.70
2018-07-23T12:12:03.760Z,10.30
2018-07-23T12:14:31.329Z,9.23
2018-07-23T12:16:58.944Z,8.83
2018-07-23T12:19:26.493Z,8.50
2018-07-23T12:21:54.093Z,10.00
2018-07-23T12:24:21.706Z,8.90
2018-07-23T12:26:50.462Z,8.40
2018-07-23T12:29:18.048Z,9.60
2018-07-23T12:31:45.625Z,7.60
2018-07-23T12:34:13.248Z,9.07
2018-07-23T12:36:41.025Z,8.77
2018-07-23T12:39:09.982Z,9.60
2018-07-23T12:41:37.547Z,8.90
2018-07-23T12:44:05.130Z,8.50
2018-07-23T12:46:32.674Z,9.00
2018-07-23T12:49:00.236Z,9.13
2018-07-23T12:51:27.834Z,9.37
2018-07-23T12:53:55.523Z,8.80
2018-07-23T12:56:23.129Z,9.37
2018-07-23T12:58:50.683Z,10.33
2018-07-23T13:01:18.301Z,10.60
2018-07-23T13:03:46.329Z,11.20
2018-07-23T13:06:14.145Z,11.30
2018-07-23T13:08:41.725Z,12.23
2018-07-23T13:11:09.296Z,10.10
2018-07-23T13:13:36.960Z,10.20
2018-07-23T13:16:04.530Z,10.93
2018-07-23T13:18:32.148Z,11.00
2018-07-23T13:20:59.840Z,10.60
2018-07-23T13:23:27.443Z,11.77
2018-07-23T13:25:54.976Z,11.93
2018-07-23T13:28:22.586Z,13.30
2018-07-23T13:30:50.180Z,11.67
2018-07-23T13:33:17.764Z,12.43
2018-07-23T13:35:45.438Z,11.83
2018-07-23T13:38:13.062Z,12.00
2018-07-23T13:40:40.711Z,13.00
2018-07-23T13:43:08.357Z,13.00
2018-07-23T13:45:35.982Z,12.13
2018-07-23T13:48:03.608Z,11.77
2018-07-23T13:50:31.461Z,12.73
2018-07-23T13:52:59.037Z,11.80
2018-07-23T13:55:26.984Z,14.00
2018-07-23T13:57:54.580Z,12.67
2018-07-23T14:00:22.196Z,12.10
2018-07-23T14:02:49.775Z,16.60
2018-07-23T14:05:17.349Z,11.53
2018-07-23T14:07:44.902Z,12.30
2018-07-23T14:10:12.762Z,11.43
2018-07-23T14:12:40.628Z,11.27
2018-07-23T14:15:08.384Z,22.93
2018-07-23T14:17:36.013Z,16.70
2018-07-23T14:20:03.720Z,12.03
2018-07-23T14:22:31.387Z,14.80
2018-07-23T14:24:59.062Z,13.43
2018-07-23T14:27:26.820Z,15.47
2018-07-23T14:29:54.763Z,10.00
2018-07-23T14:32:22.555Z,10.07
2018-07-23T14:34:50.407Z,9.97
2018-07-23T14:37:19.782Z,9.97
2018-07-23T14:39:47.785Z,9.67
2018-07-23T14:42:15.735Z,10.53
2018-07-23T14:44:43.455Z,10.00
2018-07-23T14:47:11.284Z,10.90
2018-07-23T14:49:39.159Z,10.97
2018-07-23T14:52:07.143Z,10.57
2018-07-23T14:54:34.915Z,10.33
2018-07-23T14:57:02.817Z,11.17
2018-07-23T14:59:30.861Z,11.63
2018-07-23T15:01:58.679Z,11.10
2018-07-23T15:04:26.505Z,10.63
2018-07-23T15:06:54.257Z,11.10
2018-07-23T15:09:22.086Z,10.00
2018-07-23T15:11:49.867Z,11.13
2018-07-23T15:14:17.775Z,9.63
2018-07-23T15:16:45.587Z,10.77
2018-07-23T15:19:13.432Z,10.10
2018-07-23T15:21:41.249Z,15.20
2018-07-23T15:24:09.043Z,11.87
2018-07-23T15:26:37.090Z,10.37
2018-07-23T15:29:04.921Z,9.97
2018-07-23T15:31:32.740Z,10.70
2018-07-23T15:34:00.515Z,10.17
2018-07-23T15:36:28.337Z,11.57
2018-07-23T15:38:56.128Z,10.90
2018-07-23T15:41:23.968Z,10.53
2018-07-23T15:43:51.911Z,10.97
2018-07-23T15:46:19.866Z,10.13
2018-07-23T15:48:47.667Z,9.17
2018-07-23T15:51:15.460Z,10.40
2018-07-23T15:53:43.272Z,9.57
2018-07-23T15:56:11.081Z,9.70
2018-07-23T15:58:38.912Z,10.20
2018-07-23T16:01:06.696Z,9.63
2018-07-23T16:03:34.548Z,16.17
2018-07-23T16:06:02.338Z,22.27
2018-07-23T16:08:29.945Z,9.50
2018-07-23T16:10:57.584Z,10.27
2018-07-23T16:13:25.190Z,11.47
2018-07-23T16:15:52.761Z,10.70
2018-07-23T16:18:20.307Z,10.20
2018-07-23T16:20:47.904Z,10.63
2018-07-23T16:23:15.433Z,9.97
2018-07-23T16:25:43.009Z,11.00
2018-07-23T16:28:10.599Z,10.23
2018-07-23T16:30:38.194Z,11.90
2018-07-23T16:33:05.980Z,10.73
2018-07-23T16:35:33.579Z,11.13
2018-07-23T16:38:04.016Z,11.77
2018-07-23T16:40:31.647Z,10.30
2018-07-23T16:42:59.253Z,10.07
2018-07-23T16:45:26.843Z,11.33
2018-07-23T16:47:54.466Z,11.63
2018-07-23T16:50:22.077Z,13.40
2018-07-23T16:52:49.698Z,11.80
2018-07-23T16:55:17.296Z,11.40
2018-07-23T16:57:44.969Z,11.40
2018-07-23T17:00:12.566Z,11.67
2018-07-23T17:02:40.159Z,12.20
2018-07-23T17:05:07.736Z,11.23
2018-07-23T17:07:35.307Z,11.37
2018-07-23T17:10:02.933Z,11.87
2018-07-23T17:12:30.533Z,10.83
2018-07-23T17:14:58.120Z,11.70
2018-07-23T17:17:25.808Z,13.07
2018-07-23T17:19:53.456Z,11.63
2018-07-23T17:22:21.049Z,12.00
2018-07-23T17:24:48.629Z,12.63
2018-07-23T17:27:16.195Z,12.60
2018-07-23T17:29:43.823Z,12.30
2018-07-23T17:32:11.376Z,12.00
2018-07-23T17:34:38.950Z,12.40
2018-07-23T17:37:06.545Z,12.93
2018-07-23T17:39:34.098Z,12.80
2018-07-23T17:42:01.669Z,12.20
2018-07-23T17:44:29.323Z,12.07
2018-07-23T17:46:56.902Z,14.77
2018-07-23T17:49:24.519Z,12.70
2018-07-23T17:51:52.120Z,14.30
2018-07-23T17:54:19.741Z,12.63
2018-07-23T17:56:47.321Z,12.93
2018-07-23T17:59:14.968Z,13.53
2018-07-23T18:01:42.532Z,12.60
2018-07-23T18:04:10.144Z,13.50
2018-07-23T18:06:38.730Z,12.33
2018-07-23T18:09:07.507Z,13.30
2018-07-23T18:11:35.142Z,11.90
2018-07-23T18:14:02.803Z,12.43
2018-07-23T18:16:30.402Z,12.00
2018-07-23T18:18:58.002Z,12.10
2018-07-23T18:21:25.597Z,12.60
2018-07-23T18:23:53.229Z,11.07
2018-07-23T18:26:20.817Z,12.60
2018-07-23T18:28:48.465Z,11.70
2018-07-23T18:31:16.146Z,11.97
2018-07-23T18:33:43.747Z,12.50
2018-07-23T18:36:11.344Z,11.37
2018-07-23T18:38:39.111Z,12.83
2018-07-23T18:41:06.630Z,12.20
2018-07-23T18:43:34.341Z,11.70
2018-07-23T18:46:01.953Z,11.87
2018-07-23T18:49:35.036Z,13.37
2018-07-23T18:52:02.740Z,11.30
2018-07-23T18:54:31.478Z,13.00
2018-07-23T18:57:01.369Z,12.83
2018-07-23T18:59:29.380Z,15.27
2018-07-23T19:01:58.007Z,12.37
2018-07-23T19:04:25.711Z,11.87
2018-07-23T19:06:54.093Z,12.77
2018-07-23T19:09:23.246Z,11.97
2018-07-23T19:11:51.865Z,12.90
2018-07-23T19:14:35.933Z,12.77
2018-07-23T19:17:04.781Z,12.17
2018-07-23T19:19:32.563Z,11.70
2018-07-23T19:22:00.159Z,11.63
2018-07-23T19:24:27.757Z,13.30
2018-07-23T19:26:55.429Z,19.37
2018-07-23T19:29:23.194Z,11.90
2018-07-23T19:31:50.835Z,12.10
2018-07-23T19:34:18.471Z,13.23
2018-07-23T19:36:48.908Z,13.23
2018-07-23T19:39:17.669Z,12.80
2018-07-23T19:41:51.378Z,13.50
2018-07-23T19:44:19.329Z,12.07
2018-07-23T19:46:46.994Z,12.97
2018-07-23T19:49:14.696Z,12.33
2018-07-23T19:51:42.378Z,12.07
2018-07-23T19:54:10.453Z,13.47
2018-07-23T19:56:38.126Z,14.10
2018-07-23T19:59:05.877Z,12.83
2018-07-23T20:01:33.613Z,12.60
2018-07-23T20:04:01.279Z,13.00
2018-07-23T20:06:29.303Z,12.73
2018-07-23T20:08:57.982Z,12.13
2018-07-23T20:11:27.316Z,13.10
2018-07-23T20:13:55.115Z,12.43
2018-07-23T20:16:22.763Z,13.57
2018-07-23T20:18:50.388Z,12.53
2018-07-23T20:21:18.070Z,12.50
2018-07-23T20:23:45.817Z,12.80
2018-07-23T20:26:13.472Z,12.50
2018-07-23T20:28:41.178Z,13.47
2018-07-23T20:31:08.778Z,13.80
2018-07-23T20:33:36.492Z,12.23
2018-07-23T20:36:04.533Z,13.80
2018-07-23T20:38:32.701Z,13.33
2018-07-23T20:41:00.536Z,12.83
2018-07-23T20:43:29.014Z,16.07
2018-07-23T20:45:57.118Z,14.30
2018-07-23T20:48:24.752Z,13.30
2018-07-23T20:50:52.470Z,13.40
2018-07-23T20:53:20.222Z,12.70
2018-07-23T20:55:47.914Z,14.13
2018-07-23T20:58:15.526Z,13.63
2018-07-23T21:00:43.157Z,13.43
2018-07-23T21:03:10.873Z,13.17
2018-07-23T21:05:38.496Z,14.27
2018-07-23T21:08:06.141Z,13.90
2018-07-23T21:10:33.759Z,13.80
2018-07-23T21:13:01.570Z,15.30
2018-07-23T21:15:29.224Z,14.60
2018-07-23T21:17:56.820Z,17.70
2018-07-23T21:20:24.422Z,20.13
2018-07-23T21:22:52.060Z,15.30
2018-07-23T21:25:19.730Z,15.47
2018-07-23T21:27:47.385Z,14.93
2018-07-23T21:30:15.024Z,15.10
2018-07-23T21:32:42.671Z,16.20
2018-07-23T21:35:10.278Z,16.03
2018-07-23T21:37:37.947Z,14.83
2018-07-23T21:40:05.997Z,16.97
2018-07-23T21:42:33.631Z,16.10
2018-07-23T21:45:01.301Z,16.47
2018-07-23T21:47:28.949Z,16.73
2018-07-23T21:49:56.614Z,16.57
2018-07-23T21:52:24.191Z,17.03
2018-07-23T21:54:51.810Z,16.23
2018-07-23T21:57:19.432Z,17.50
2018-07-23T21:59:47.011Z,16.10
2018-07-23T22:02:14.596Z,16.60
2018-07-23T22:04:42.172Z,15.63
2018-07-23T22:07:09.824Z,16.67
2018-07-23T22:09:37.400Z,15.80
2018-07-23T22:12:04.977Z,15.37
2018-07-23T22:14:32.586Z,15.77
2018-07-23T22:17:00.203Z,15.63
2018-07-23T22:19:27.760Z,15.73
2018-07-23T22:21:55.401Z,15.60
2018-07-23T22:24:22.963Z,14.33
2018-07-23T22:26:50.532Z,14.60
2018-07-23T22:29:18.178Z,15.70
2018-07-23T22:31:45.834Z,15.20
2018-07-23T22:34:13.403Z,15.60
2018-07-23T22:36:40.998Z,15.67
2018-07-23T22:39:09.679Z,16.13
2018-07-23T22:41:37.441Z,17.20
2018-07-23T22:44:05.009Z,16.20
2018-07-23T22:46:32.602Z,16.93
2018-07-23T22:49:00.164Z,17.00
2018-07-23T22:51:27.768Z,16.53
2018-07-23T22:53:55.405Z,16.40
2018-07-23T22:56:23.008Z,17.97
2018-07-23T22:58:50.629Z,15.67
2018-07-23T23:01:18.744Z,17.20
2018-07-23T23:03:46.395Z,17.27
2018-07-23T23:06:13.988Z,16.10
2018-07-23T23:08:41.608Z,16.57
2018-07-23T23:11:09.172Z,16.20
2018-07-23T23:13:36.773Z,16.40
2018-07-23T23:16:04.323Z,16.03
2018-07-23T23:18:31.882Z,16.73
2018-07-23T23:20:59.536Z,15.83
2018-07-23T23:23:27.192Z,16.97
2018-07-23T23:25:54.750Z,17.00
2018-07-23T23:28:22.321Z,16.70
2018-07-23T23:30:49.893Z,16.50
2018-07-23T23:33:17.461Z,16.70
2018-07-23T23:35:45.026Z,16.90
2018-07-23T23:38:12.582Z,18.00
2018-07-23T23:40:40.156Z,17.40
2018-07-23T23:43:07.744Z,16.67
2018-07-23T23:45:35.299Z,16.40
2018-07-23T23:48:02.877Z,15.87
2018-07-23T23:50:30.469Z,15.30
2018-07-23T23:52:58.098Z,15.63
2018-07-23T23:55:25.688Z,17.30
2018-07-23T23:57:53.261Z,16.80
